createdAt,value
2022-10-19T00:01:32.669Z,7.43
2022-10-19T00:04:03.513Z,8.48
2022-10-19T00:06:38.019Z,7.10
2022-10-19T00:09:09.067Z,8.05
2022-10-19T00:11:39.679Z,7.00
2022-10-19T00:14:09.488Z,7.97
2022-10-19T00:16:39.731Z,6.80
2022-10-19T00:19:10.809Z,9.35
2022-10-19T00:21:41.043Z,7.03
2022-10-19T00:24:10.459Z,6.45
2022-10-19T00:26:39.332Z,7.75
2022-10-19T00:29:08.074Z,7.95
2022-10-19T00:31:36.801Z,6.65
2022-10-19T00:34:05.510Z,6.50
2022-10-19T00:36:36.789Z,8.35
2022-10-19T00:39:09.570Z,6.47
2022-10-19T00:41:38.878Z,6.85
2022-10-19T00:44:09.760Z,8.13
2022-10-19T00:46:40.328Z,6.80
2022-10-19T00:49:11.198Z,8.95
2022-10-19T00:51:44.911Z,6.47
2022-10-19T00:54:15.908Z,7.25
2022-10-19T00:56:46.708Z,7.03
2022-10-19T00:59:18.069Z,7.43
2022-10-19T01:01:47.700Z,6.57
2022-10-19T01:04:16.879Z,8.98
2022-10-19T01:06:45.465Z,7.05
2022-10-19T01:09:15.550Z,6.85
2022-10-19T01:11:55.198Z,8.98
2022-10-19T01:14:35.810Z,6.68
2022-10-19T01:17:14.109Z,7.75
2022-10-19T01:20:11.579Z,5.95
2022-10-19T01:22:57.909Z,6.82
2022-10-19T01:25:40.459Z,5.85
2022-10-19T01:28:26.081Z,8.18
2022-10-19T01:31:03.359Z,6.18
2022-10-19T01:33:45.505Z,6.93
2022-10-19T01:36:23.169Z,6.30
2022-10-19T01:38:58.410Z,8.35
2022-10-19T01:41:31.539Z,7.95
2022-10-19T01:44:05.229Z,5.32
2022-10-19T01:46:39.719Z,7.55
2022-10-19T01:49:13.529Z,7.40
2022-10-19T01:51:47.422Z,7.15
2022-10-19T01:54:19.478Z,5.65
2022-10-19T01:56:50.803Z,6.57
2022-10-19T01:59:22.530Z,7.65
2022-10-19T02:01:54.068Z,7.80
2022-10-19T02:04:25.309Z,7.47
2022-10-19T02:06:55.506Z,6.43
2022-10-19T02:09:24.144Z,6.88
2022-10-19T02:11:57.255Z,6.43
2022-10-19T02:14:30.203Z,8.52
2022-10-19T02:17:04.534Z,7.93
2022-10-19T02:19:33.174Z,7.20
2022-10-19T02:22:02.045Z,5.88
2022-10-19T02:24:30.569Z,6.90
2022-10-19T02:27:00.783Z,6.20
2022-10-19T02:29:29.714Z,6.40
2022-10-19T02:31:58.354Z,5.88
2022-10-19T02:34:28.939Z,6.97
2022-10-19T02:36:58.094Z,6.55
2022-10-19T02:39:26.987Z,5.80
2022-10-19T02:42:02.004Z,5.63
2022-10-19T02:44:35.503Z,7.43
2022-10-19T02:47:09.144Z,7.20
2022-10-19T02:49:39.544Z,6.47
2022-10-19T02:52:09.418Z,6.40
2022-10-19T02:54:40.704Z,7.47
2022-10-19T02:57:17.784Z,6.30
2022-10-19T02:59:46.595Z,6.45
2022-10-19T03:02:15.924Z,6.68
2022-10-19T03:07:21.663Z,7.68
2022-10-19T03:09:50.583Z,6.35
2022-10-19T03:12:19.745Z,6.38
2022-10-19T03:14:48.225Z,6.85
2022-10-19T03:17:16.805Z,6.07
2022-10-19T03:19:47.697Z,5.22
2022-10-19T03:22:16.304Z,6.95
2022-10-19T03:24:44.903Z,6.13
2022-10-19T03:27:13.444Z,6.55
2022-10-19T03:29:42.004Z,6.15
2022-10-19T03:32:10.513Z,6.60
2022-10-19T03:34:39.737Z,5.72
2022-10-19T03:37:10.774Z,5.47
2022-10-19T03:39:39.853Z,5.32
2022-10-19T03:42:09.134Z,6.82
2022-10-19T03:44:37.664Z,5.45
2022-10-19T03:47:06.184Z,5.85
2022-10-19T03:49:36.847Z,5.20
2022-10-19T03:52:10.407Z,6.55
2022-10-19T03:54:38.920Z,7.05
2022-10-19T03:57:07.394Z,4.72
2022-10-19T03:59:35.893Z,6.05
2022-10-19T04:02:04.749Z,6.13
2022-10-19T04:04:33.276Z,5.57
2022-10-19T04:07:02.095Z,4.85
2022-10-19T04:09:32.004Z,6.00
2022-10-19T04:12:00.444Z,5.20
2022-10-19T04:14:33.212Z,5.65
2022-10-19T04:17:07.965Z,6.55
2022-10-19T04:19:36.514Z,5.35
2022-10-19T04:22:05.036Z,5.47
2022-10-19T04:24:34.973Z,4.78
2022-10-19T04:27:03.816Z,5.53
2022-10-19T04:29:32.334Z,4.80
2022-10-19T04:32:00.896Z,4.82
2022-10-19T04:34:29.524Z,5.35
2022-10-19T04:36:59.784Z,4.80
2022-10-19T04:39:28.326Z,4.82
2022-10-19T04:41:58.307Z,4.55
2022-10-19T04:44:26.755Z,5.20
2022-10-19T04:46:55.245Z,5.10
2022-10-19T04:49:23.805Z,4.90
2022-10-19T04:51:52.234Z,5.07
2022-10-19T04:54:20.824Z,4.88
2022-10-19T04:56:49.325Z,5.25
2022-10-19T04:59:19.229Z,6.05
2022-10-19T05:01:47.744Z,5.22
2022-10-19T05:04:16.284Z,4.70
2022-10-19T05:06:44.751Z,5.13
2022-10-19T05:09:13.244Z,4.88
2022-10-19T05:11:41.804Z,4.75
2022-10-19T05:14:10.284Z,4.88
2022-10-19T05:16:40.235Z,4.70
2022-10-19T05:19:08.721Z,5.30
2022-10-19T05:21:37.204Z,5.13
2022-10-19T05:24:05.905Z,4.50
2022-10-19T05:26:34.404Z,5.03
2022-10-19T05:29:04.622Z,5.03
2022-10-19T05:31:35.265Z,4.68
2022-10-19T05:34:05.484Z,4.90
2022-10-19T05:36:37.088Z,5.82
2022-10-19T05:39:07.985Z,5.05
2022-10-19T05:41:39.465Z,4.40
2022-10-19T05:44:08.295Z,4.90
2022-10-19T05:46:36.790Z,4.13
2022-10-19T05:49:06.905Z,4.65
2022-10-19T05:51:36.846Z,7.45
2022-10-19T05:54:06.045Z,5.22
2022-10-19T05:56:34.785Z,4.90
2022-10-19T05:59:06.395Z,4.40
2022-10-19T06:01:40.874Z,5.72
2022-10-19T06:04:14.356Z,5.95
2022-10-19T06:06:44.894Z,4.90
2022-10-19T06:09:13.905Z,4.05
2022-10-19T06:11:43.647Z,4.53
2022-10-19T06:14:15.784Z,5.10
2022-10-19T06:16:46.287Z,4.70
2022-10-19T06:19:16.654Z,4.22
2022-10-19T06:21:46.334Z,5.85
2022-10-19T06:24:14.980Z,5.40
2022-10-19T06:26:43.474Z,10.10
2022-10-19T06:29:12.284Z,5.47
2022-10-19T06:31:40.746Z,5.18
2022-10-19T06:34:09.281Z,4.32
2022-10-19T06:36:39.605Z,6.47
2022-10-19T06:39:08.105Z,5.75
2022-10-19T06:41:36.615Z,5.95
2022-10-19T06:44:05.214Z,4.28
2022-10-19T06:46:34.173Z,7.90
2022-10-19T06:49:03.804Z,6.47
2022-10-19T06:51:34.273Z,6.72
2022-10-19T06:54:04.956Z,5.28
2022-10-19T06:56:33.534Z,4.80
2022-10-19T06:59:02.084Z,7.15
2022-10-19T07:01:44.556Z,5.13
2022-10-19T07:04:13.344Z,8.45
2022-10-19T07:06:41.966Z,9.45
2022-10-19T07:09:11.985Z,8.27
2022-10-19T07:11:45.731Z,7.57
2022-10-19T07:14:14.671Z,7.88
2022-10-19T07:16:43.216Z,8.07
2022-10-19T07:19:11.944Z,6.60
2022-10-19T07:21:41.905Z,6.55
2022-10-19T07:24:11.974Z,7.18
2022-10-19T07:26:40.444Z,7.97
2022-10-19T07:29:08.985Z,6.65
2022-10-19T07:31:37.565Z,6.95
2022-10-19T07:34:07.194Z,6.00
2022-10-19T07:36:37.254Z,6.97
2022-10-19T07:39:07.539Z,7.53
2022-10-19T07:41:37.547Z,8.15
2022-10-19T07:44:06.959Z,9.27
2022-10-19T07:46:37.455Z,6.85
2022-10-19T07:49:08.046Z,6.85
2022-10-19T07:51:36.984Z,6.28
2022-10-19T07:54:06.415Z,7.20
2022-10-19T07:56:35.055Z,7.85
2022-10-19T07:59:06.055Z,6.20
2022-10-19T08:01:37.314Z,7.70
2022-10-19T08:06:54.616Z,4.75
2022-10-19T08:09:51.116Z,5.78
2022-10-19T08:12:15.118Z,7.30
2022-10-19T08:14:45.644Z,6.82
2022-10-19T08:17:17.828Z,7.93
2022-10-19T08:19:47.267Z,5.40
2022-10-19T08:22:18.455Z,6.18
2022-10-19T08:24:46.934Z,6.00
2022-10-19T08:27:16.214Z,9.48
2022-10-19T08:29:46.255Z,6.32
2022-10-19T08:32:14.683Z,6.50
2022-10-19T08:34:43.604Z,6.15
2022-10-19T08:37:25.967Z,8.93
2022-10-19T08:39:54.937Z,8.77
2022-10-19T08:42:30.065Z,5.32
2022-10-19T08:45:25.404Z,8.57
2022-10-19T08:48:18.676Z,9.55
2022-10-19T08:50:49.075Z,7.95
2022-10-19T08:53:23.536Z,8.00
2022-10-19T08:56:06.144Z,9.07
2022-10-19T08:58:49.294Z,8.48
2022-10-19T09:01:35.356Z,8.35
2022-10-19T09:04:11.705Z,4.75
2022-10-19T09:06:53.624Z,6.88
2022-10-19T09:09:22.705Z,6.80
2022-10-19T09:11:56.464Z,5.63
2022-10-19T09:14:31.627Z,6.15
2022-10-19T09:17:07.789Z,7.57
2022-10-19T09:19:36.365Z,8.50
2022-10-19T09:22:09.274Z,5.88
2022-10-19T09:24:44.475Z,7.78
2022-10-19T09:27:21.545Z,5.60
2022-10-19T09:29:52.675Z,7.93
2022-10-19T09:32:28.167Z,7.82
2022-10-19T09:35:01.474Z,6.85
2022-10-19T09:40:04.854Z,6.50
2022-10-19T09:42:37.096Z,6.15
2022-10-19T09:45:17.924Z,6.65
2022-10-19T09:47:50.209Z,7.43
2022-10-19T09:50:20.984Z,5.78
2022-10-19T09:52:50.724Z,5.13
2022-10-19T09:55:31.101Z,6.13
2022-10-19T09:58:04.744Z,6.15
2022-10-19T10:00:39.583Z,6.15
2022-10-19T10:03:10.204Z,6.40
2022-10-19T10:05:41.035Z,6.18
2022-10-19T10:08:18.344Z,5.07
2022-10-19T10:10:49.565Z,8.93
2022-10-19T10:13:21.507Z,4.82
2022-10-19T10:15:52.399Z,5.53
2022-10-19T10:18:24.664Z,5.95
2022-10-19T10:21:02.587Z,5.97
2022-10-19T10:23:36.531Z,6.82
2022-10-19T10:26:07.334Z,6.97
2022-10-19T10:28:47.457Z,8.23
2022-10-19T10:31:16.789Z,4.63
2022-10-19T10:33:55.893Z,5.75
2022-10-19T10:36:27.074Z,6.20
2022-10-19T10:39:03.572Z,5.63
2022-10-19T10:41:37.844Z,9.57
2022-10-19T10:44:10.884Z,9.48
2022-10-19T10:46:47.834Z,15.75
2022-10-19T10:49:24.564Z,11.30
2022-10-19T10:51:56.434Z,15.93
2022-10-19T10:54:26.654Z,18.27
2022-10-19T10:57:06.823Z,21.35
2022-10-19T10:59:43.096Z,20.48
2022-10-19T11:02:23.532Z,22.10
2022-10-19T11:04:58.414Z,21.42
2022-10-19T11:07:29.757Z,20.33
2022-10-19T11:10:00.724Z,18.40
2022-10-19T11:12:40.485Z,22.80
2022-10-19T11:15:18.387Z,21.83
2022-10-19T11:18:01.770Z,22.08
2022-10-19T11:20:33.998Z,27.55
2022-10-19T11:23:13.708Z,22.77
2022-10-19T11:25:55.839Z,24.30
2022-10-19T11:28:39.604Z,22.90
2022-10-19T11:31:16.819Z,19.83
2022-10-19T11:34:00.472Z,17.67
2022-10-19T11:36:47.849Z,19.75
2022-10-19T11:39:43.088Z,19.75
2022-10-19T11:42:20.179Z,17.98
2022-10-19T11:45:04.879Z,13.52
2022-10-19T11:47:51.600Z,20.02
2022-10-19T11:50:32.589Z,19.98
2022-10-19T11:53:11.300Z,19.95
2022-10-19T11:55:47.669Z,16.30
2022-10-19T11:58:51.539Z,17.58
2022-10-19T12:01:35.281Z,14.93
2022-10-19T12:04:31.461Z,14.38
2022-10-19T12:07:16.370Z,14.25
2022-10-19T12:09:55.349Z,16.83
2022-10-19T12:12:31.166Z,16.40
2022-10-19T12:15:21.569Z,12.82
2022-10-19T12:17:53.472Z,14.75
2022-10-19T12:20:27.879Z,15.95
2022-10-19T12:22:58.248Z,15.27
2022-10-19T12:25:29.289Z,14.63
2022-10-19T12:27:59.709Z,16.98
2022-10-19T12:30:28.469Z,17.92
2022-10-19T12:33:16.092Z,18.48
2022-10-19T12:36:23.762Z,14.95
2022-10-19T12:39:02.249Z,16.75
2022-10-19T12:41:40.309Z,13.75
2022-10-19T12:44:22.451Z,18.65
2022-10-19T12:46:57.593Z,15.90
2022-10-19T12:49:49.530Z,11.88
2022-10-19T12:52:36.103Z,9.63
2022-10-19T12:55:27.040Z,16.75
2022-10-19T12:58:03.029Z,14.02
2022-10-19T13:00:34.355Z,15.82
2022-10-19T13:03:07.577Z,12.13
2022-10-19T13:05:37.471Z,12.95
2022-10-19T13:08:10.701Z,15.82
2022-10-19T13:10:42.410Z,13.05
2022-10-19T13:13:43.219Z,14.25
2022-10-19T13:16:45.119Z,13.73
2022-10-19T13:19:22.619Z,12.38
2022-10-19T13:21:54.460Z,16.83
2022-10-19T13:24:35.860Z,14.77
2022-10-19T13:27:27.339Z,16.80
2022-10-19T13:29:56.469Z,11.93
2022-10-19T13:32:39.550Z,13.77
2022-10-19T13:35:33.283Z,10.82
2022-10-19T13:38:29.893Z,11.18
2022-10-19T13:41:03.169Z,15.10
2022-10-19T13:43:35.239Z,15.20
2022-10-19T13:46:16.253Z,12.05
2022-10-19T13:49:14.449Z,12.77
2022-10-19T13:51:55.029Z,12.40
2022-10-19T13:54:35.689Z,10.32
2022-10-19T13:57:19.399Z,12.57
2022-10-19T14:00:20.049Z,11.75
2022-10-19T14:03:31.370Z,9.73
2022-10-19T14:06:11.770Z,10.88
2022-10-19T14:09:06.118Z,9.77
2022-10-19T14:11:38.050Z,10.50
2022-10-19T14:14:15.944Z,10.30
2022-10-19T14:16:58.299Z,11.55
2022-10-19T14:19:31.950Z,8.55
2022-10-19T14:22:20.769Z,10.88
2022-10-19T14:24:50.739Z,10.38
2022-10-19T14:27:23.471Z,16.83
2022-10-19T14:29:54.640Z,12.57
2022-10-19T14:32:26.833Z,11.30
2022-10-19T14:34:58.956Z,9.95
2022-10-19T14:37:28.908Z,11.57
2022-10-19T14:40:05.270Z,10.27
2022-10-19T14:42:45.759Z,9.63
2022-10-19T14:45:17.824Z,9.25
2022-10-19T14:48:01.586Z,10.30
2022-10-19T14:50:41.596Z,10.02
2022-10-19T14:53:30.584Z,7.53
2022-10-19T14:56:03.959Z,10.68
2022-10-19T14:58:38.729Z,9.00
2022-10-19T15:01:08.038Z,9.38
2022-10-19T15:03:39.123Z,8.98
2022-10-19T15:06:20.481Z,9.43
2022-10-19T15:11:30.399Z,10.43
2022-10-19T15:14:05.299Z,11.07
2022-10-19T15:16:42.570Z,9.07
2022-10-19T15:19:18.830Z,9.35
2022-10-19T15:21:49.879Z,8.02
2022-10-19T15:24:27.545Z,7.60
2022-10-19T15:27:09.048Z,7.97
2022-10-19T15:29:39.130Z,10.23
2022-10-19T15:32:22.369Z,9.70
2022-10-19T15:34:51.349Z,7.97
2022-10-19T15:37:22.912Z,8.77
2022-10-19T15:39:57.849Z,7.38
2022-10-19T15:42:39.890Z,9.77
2022-10-19T15:45:31.609Z,7.75
2022-10-19T15:48:31.179Z,7.55
2022-10-19T15:50:59.707Z,11.13
2022-10-19T15:53:28.515Z,9.07
2022-10-19T15:55:57.135Z,9.88
2022-10-19T15:58:27.224Z,8.75
2022-10-19T16:00:56.172Z,9.38
2022-10-19T16:03:24.769Z,8.15
2022-10-19T16:05:54.555Z,6.65
2022-10-19T16:08:23.046Z,8.57
2022-10-19T16:10:53.550Z,9.98
2022-10-19T16:13:22.029Z,8.45
2022-10-19T16:16:01.341Z,8.52
2022-10-19T16:18:39.399Z,8.40
2022-10-19T16:21:08.109Z,9.82
2022-10-19T16:23:41.814Z,8.25
2022-10-19T16:26:11.020Z,9.10
2022-10-19T16:28:39.500Z,7.78
2022-10-19T16:31:09.518Z,7.78
2022-10-19T16:33:38.354Z,7.95
2022-10-19T16:36:08.349Z,8.88
2022-10-19T16:38:37.259Z,8.25
2022-10-19T16:41:08.011Z,9.80
2022-10-19T16:43:37.339Z,7.47
2022-10-19T16:46:06.309Z,7.38
2022-10-19T16:48:37.129Z,9.32
2022-10-19T16:51:35.669Z,11.02
2022-10-19T16:54:05.817Z,7.47
2022-10-19T16:56:35.689Z,8.15
2022-10-19T16:59:06.169Z,6.97
2022-10-19T17:01:36.715Z,8.07
2022-10-19T17:04:06.955Z,5.88
2022-10-19T17:06:35.850Z,5.80
2022-10-19T17:11:53.590Z,11.57
2022-10-19T17:14:22.180Z,8.05
2022-10-19T17:16:50.670Z,13.25
2022-10-19T17:19:20.601Z,9.82
2022-10-19T17:21:49.605Z,10.10
2022-10-19T17:24:22.021Z,11.85
2022-10-19T17:26:52.050Z,11.10
2022-10-19T17:29:21.249Z,9.57
2022-10-19T17:31:50.471Z,11.07
2022-10-19T17:34:20.700Z,11.50
2022-10-19T17:36:49.489Z,8.63
2022-10-19T17:39:22.129Z,10.05
2022-10-19T17:41:53.609Z,11.38
2022-10-19T17:44:29.130Z,14.90
2022-10-19T17:46:57.589Z,7.90
2022-10-19T17:49:27.709Z,12.05
2022-10-19T17:51:56.189Z,10.75
2022-10-19T17:54:24.784Z,9.40
2022-10-19T17:56:53.390Z,10.50
2022-10-19T17:59:30.196Z,12.70
2022-10-19T18:02:04.429Z,11.18
2022-10-19T18:07:04.533Z,10.32
2022-10-19T18:09:33.029Z,10.75
2022-10-19T18:12:04.978Z,9.32
2022-10-19T18:14:34.979Z,11.18
2022-10-19T18:17:03.491Z,9.70
2022-10-19T18:19:33.444Z,12.90
2022-10-19T18:22:02.109Z,11.25
2022-10-19T18:24:30.787Z,9.63
2022-10-19T18:26:59.264Z,13.90
2022-10-19T18:29:28.260Z,12.32
2022-10-19T18:31:56.892Z,8.40
2022-10-19T18:34:26.911Z,9.07
2022-10-19T18:36:56.940Z,8.73
2022-10-19T18:39:25.428Z,8.57
2022-10-19T18:41:55.047Z,7.20
2022-10-19T18:44:27.047Z,10.35
2022-10-19T18:46:57.392Z,8.05
2022-10-19T18:49:26.349Z,10.63
2022-10-19T18:51:55.868Z,10.57
2022-10-19T18:54:28.243Z,12.73
2022-10-19T18:56:59.559Z,11.95
2022-10-19T19:01:56.946Z,9.93
2022-10-19T19:04:25.424Z,11.27
2022-10-19T19:06:54.309Z,8.10
2022-10-19T19:09:22.924Z,12.32
2022-10-19T19:11:54.539Z,13.13
2022-10-19T19:14:23.134Z,8.52
2022-10-19T19:16:51.649Z,7.43
2022-10-19T19:19:21.178Z,12.48
2022-10-19T19:22:09.460Z,11.48
2022-10-19T19:24:38.299Z,9.48
2022-10-19T19:27:08.529Z,12.98
2022-10-19T19:29:37.309Z,10.27
2022-10-19T19:32:07.154Z,10.75
2022-10-19T19:34:36.311Z,11.82
2022-10-19T19:37:22.011Z,9.88
2022-10-19T19:39:59.510Z,9.48
2022-10-19T19:42:30.307Z,10.77
2022-10-19T19:45:20.049Z,9.02
2022-10-19T19:48:32.766Z,10.27
2022-10-19T19:51:57.704Z,8.38
2022-10-19T19:54:31.780Z,10.10
2022-10-19T19:57:00.399Z,8.93
2022-10-19T19:59:32.394Z,7.82
2022-10-19T20:02:05.662Z,8.38
2022-10-19T20:04:56.790Z,10.25
2022-10-19T20:07:27.328Z,11.05
2022-10-19T20:09:55.861Z,8.90
2022-10-19T20:12:30.409Z,8.93
2022-10-19T20:15:08.610Z,7.95
2022-10-19T20:17:37.833Z,8.88
2022-10-19T20:20:08.180Z,8.25
2022-10-19T20:22:37.351Z,8.23
2022-10-19T20:25:06.829Z,9.52
2022-10-19T20:27:36.545Z,8.32
2022-10-19T20:30:08.029Z,8.07
2022-10-19T20:32:37.035Z,9.88
2022-10-19T20:35:11.759Z,10.55
2022-10-19T20:37:40.490Z,9.02
2022-10-19T20:40:11.140Z,8.23
2022-10-19T20:42:41.054Z,8.13
2022-10-19T20:45:13.505Z,8.95
2022-10-19T20:47:44.809Z,9.30
2022-10-19T20:50:13.614Z,7.05
2022-10-19T20:52:42.161Z,8.57
2022-10-19T20:55:11.510Z,7.85
2022-10-19T20:57:43.879Z,7.18
2022-10-19T21:00:16.663Z,6.07
2022-10-19T21:02:46.344Z,10.05
2022-10-19T21:05:17.564Z,7.68
2022-10-19T21:07:46.184Z,10.48
2022-10-19T21:10:15.396Z,9.35
2022-10-19T21:12:44.345Z,7.43
2022-10-19T21:15:15.260Z,8.32
2022-10-19T21:17:43.720Z,8.07
2022-10-19T21:20:14.955Z,8.40
2022-10-19T21:22:43.807Z,6.82
2022-10-19T21:25:12.684Z,7.10
2022-10-19T21:27:41.274Z,11.30
2022-10-19T21:30:10.683Z,9.10
2022-10-19T21:32:40.655Z,7.20
2022-10-19T21:35:09.789Z,7.00
2022-10-19T21:37:40.749Z,8.07
2022-10-19T21:40:10.987Z,6.35
2022-10-19T21:42:39.539Z,6.45
2022-10-19T21:45:29.364Z,9.43
2022-10-19T21:47:59.420Z,8.20
2022-10-19T21:50:28.940Z,7.60
2022-10-19T21:52:57.468Z,6.82
2022-10-19T21:55:26.470Z,8.27
2022-10-19T21:57:54.914Z,7.03
2022-10-19T22:00:23.389Z,7.00
2022-10-19T22:02:51.922Z,7.18
2022-10-19T22:05:21.899Z,7.22
2022-10-19T22:07:50.404Z,9.85
2022-10-19T22:10:19.112Z,7.18
2022-10-19T22:12:47.681Z,6.63
2022-10-19T22:15:16.885Z,7.95
2022-10-19T22:17:45.470Z,6.43
2022-10-19T22:20:13.980Z,6.57
2022-10-19T22:22:54.140Z,9.20
2022-10-19T22:25:23.509Z,6.93
2022-10-19T22:27:55.844Z,6.88
2022-10-19T22:30:24.402Z,6.35
2022-10-19T22:32:54.146Z,6.38
2022-10-19T22:35:22.730Z,7.28
2022-10-19T22:37:53.340Z,5.70
2022-10-19T22:40:21.799Z,8.57
2022-10-19T22:43:40.029Z,6.03
2022-10-19T22:46:45.525Z,7.35
2022-10-19T22:49:33.320Z,7.28
2022-10-19T22:52:20.049Z,6.40
2022-10-19T22:54:53.221Z,6.93
2022-10-19T22:57:22.289Z,7.13
2022-10-19T22:59:53.605Z,6.50
2022-10-19T23:02:24.905Z,6.43
2022-10-19T23:04:56.209Z,6.85
2022-10-19T23:07:24.752Z,6.60
2022-10-19T23:09:54.762Z,6.57
2022-10-19T23:12:23.849Z,7.40
2022-10-19T23:14:52.809Z,6.32
2022-10-19T23:17:21.604Z,8.05
2022-10-19T23:19:50.879Z,7.93
2022-10-19T23:22:22.071Z,6.38
2022-10-19T23:24:51.170Z,6.32
2022-10-19T23:27:21.899Z,7.53
2022-10-19T23:29:50.531Z,8.20
2022-10-19T23:32:19.330Z,10.25
2022-10-19T23:34:48.551Z,7.85
2022-10-19T23:37:17.501Z,6.30
2022-10-19T23:39:46.129Z,6.95
2022-10-19T23:42:19.669Z,7.65
2022-10-19T23:44:50.185Z,6.35
2022-10-19T23:47:18.820Z,9.93
2022-10-19T23:49:47.819Z,5.35
2022-10-19T23:52:16.869Z,6.53
2022-10-19T23:54:45.919Z,8.05
2022-10-19T23:57:14.699Z,7.50
2022-10-19T23:59:43.340Z,6.22
